createdAt,value
2018-08-22T00:00:47.770Z,3.00
2018-08-22T00:02:24.159Z,3.00
2018-08-22T00:03:59.982Z,3.00
2018-08-22T00:05:35.366Z,3.80
2018-08-22T00:07:12.668Z,3.00
2018-08-22T00:08:47.940Z,4.00
2018-08-22T00:10:26.813Z,3.00
2018-08-22T00:12:04.009Z,2.40
2018-08-22T00:13:38.950Z,1.00
2018-08-22T00:15:16.764Z,4.00
2018-08-22T00:16:52.864Z,3.80
2018-08-22T00:18:29.145Z,2.80
2018-08-22T00:20:04.503Z,4.00
2018-08-22T00:21:41.993Z,3.20
2018-08-22T00:23:17.540Z,2.00
2018-08-22T00:24:54.905Z,5.20
2018-08-22T00:26:30.881Z,2.60
2018-08-22T00:28:06.401Z,3.00
2018-08-22T00:29:43.142Z,3.40
2018-08-22T00:31:19.077Z,3.40
2018-08-22T00:32:54.663Z,3.00
2018-08-22T00:34:31.495Z,3.00
2018-08-22T00:36:06.897Z,6.00
2018-08-22T00:37:41.801Z,3.00
2018-08-22T00:39:16.756Z,4.80
2018-08-22T00:40:52.091Z,4.00
2018-08-22T00:42:27.970Z,3.40
2018-08-22T00:44:04.252Z,3.20
2018-08-22T00:45:39.609Z,3.00
2018-08-22T00:47:15.232Z,3.00
2018-08-22T00:48:51.817Z,3.00
2018-08-22T00:50:27.206Z,3.80
2018-08-22T00:52:03.282Z,3.60
2018-08-22T00:53:38.291Z,3.60
2018-08-22T00:55:14.092Z,3.40
2018-08-22T00:56:48.969Z,8.00
2018-08-22T00:58:24.314Z,5.20
2018-08-22T00:59:59.841Z,4.00
2018-08-22T01:01:35.190Z,5.60
2018-08-22T01:03:10.849Z,3.00
2018-08-22T01:04:46.265Z,3.60
2018-08-22T01:06:21.537Z,3.00
2018-08-22T01:07:56.534Z,4.00
2018-08-22T01:09:32.647Z,4.00
2018-08-22T01:11:09.000Z,4.00
2018-08-22T01:12:46.280Z,2.80
2018-08-22T01:14:21.410Z,4.00
2018-08-22T01:15:56.332Z,4.00
2018-08-22T01:17:32.017Z,3.60
2018-08-22T01:19:07.707Z,5.60
2018-08-22T01:20:42.769Z,3.80
2018-08-22T01:22:18.054Z,4.20
2018-08-22T01:23:54.171Z,5.00
2018-08-22T01:25:31.415Z,3.00
2018-08-22T01:27:06.768Z,3.40
2018-08-22T01:28:42.828Z,5.60
2018-08-22T01:30:19.746Z,4.00
2018-08-22T01:31:56.553Z,4.40
2018-08-22T01:33:34.235Z,4.40
2018-08-22T01:35:09.710Z,3.20
2018-08-22T01:36:45.553Z,4.20
2018-08-22T01:38:23.873Z,5.00
2018-08-22T01:40:00.709Z,2.40
2018-08-22T01:41:36.416Z,4.60
2018-08-22T01:43:12.157Z,5.20
2018-08-22T01:44:48.303Z,3.60
2018-08-22T01:46:24.272Z,4.00
2018-08-22T01:47:59.556Z,4.60
2018-08-22T01:49:35.340Z,3.00
2018-08-22T01:51:10.626Z,3.80
2018-08-22T01:52:45.624Z,5.80
2018-08-22T01:54:20.903Z,4.20
2018-08-22T01:55:56.503Z,5.00
2018-08-22T01:57:33.328Z,3.40
2018-08-22T01:59:11.071Z,3.80
2018-08-22T02:00:46.445Z,5.00
2018-08-22T02:02:21.370Z,5.00
2018-08-22T02:03:56.619Z,5.20
2018-08-22T02:05:32.228Z,5.00
2018-08-22T02:07:07.537Z,5.80
2018-08-22T02:08:42.956Z,4.20
2018-08-22T02:10:18.348Z,2.20
2018-08-22T02:11:53.920Z,3.00
2018-08-22T02:13:30.334Z,5.80
2018-08-22T02:15:07.428Z,2.00
2018-08-22T02:16:43.693Z,5.00
2018-08-22T02:18:19.049Z,4.20
2018-08-22T02:19:54.618Z,4.20
2018-08-22T02:21:29.593Z,4.20
2018-08-22T02:23:04.738Z,5.20
2018-08-22T02:24:40.099Z,5.00
2018-08-22T02:26:15.551Z,3.40
2018-08-22T02:27:50.596Z,5.00
2018-08-22T02:29:26.091Z,4.60
2018-08-22T02:31:01.210Z,5.40
2018-08-22T02:32:36.478Z,3.40
2018-08-22T02:34:12.784Z,6.00
2018-08-22T02:35:48.491Z,3.00
2018-08-22T02:37:23.770Z,5.80
2018-08-22T02:38:59.751Z,5.00
2018-08-22T02:40:35.098Z,5.80
2018-08-22T02:42:10.343Z,5.80
2018-08-22T02:43:45.760Z,5.80
2018-08-22T02:45:21.653Z,6.20
2018-08-22T02:46:56.623Z,5.80
2018-08-22T02:48:36.376Z,5.60
2018-08-22T02:50:11.404Z,3.00
2018-08-22T02:51:46.352Z,6.00
2018-08-22T02:53:21.425Z,5.00
2018-08-22T02:54:57.697Z,5.00
2018-08-22T02:56:35.711Z,6.00
2018-08-22T02:58:11.495Z,5.20
2018-08-22T02:59:46.866Z,4.20
2018-08-22T03:01:23.413Z,5.60
2018-08-22T03:03:01.130Z,6.00
2018-08-22T03:04:37.266Z,4.60
2018-08-22T03:06:12.124Z,6.00
2018-08-22T03:07:47.787Z,4.60
2018-08-22T03:09:22.817Z,6.00
2018-08-22T03:10:59.834Z,6.00
2018-08-22T03:12:35.264Z,5.00
2018-08-22T03:14:10.539Z,5.40
2018-08-22T03:15:46.062Z,5.80
2018-08-22T03:17:21.394Z,5.20
2018-08-22T03:18:57.115Z,4.20
2018-08-22T03:20:32.684Z,6.40
2018-08-22T03:22:08.237Z,6.00
2018-08-22T03:23:43.561Z,5.00
2018-08-22T03:25:19.642Z,5.80
2018-08-22T03:26:56.328Z,6.00
2018-08-22T03:28:32.754Z,5.00
2018-08-22T03:30:08.192Z,5.00
2018-08-22T03:31:43.433Z,4.60
2018-08-22T03:33:18.835Z,5.40
2018-08-22T03:34:53.931Z,6.00
2018-08-22T03:36:28.990Z,5.00
2018-08-22T03:38:04.293Z,7.00
2018-08-22T03:39:39.718Z,6.80
2018-08-22T03:41:15.770Z,6.80
2018-08-22T03:42:50.896Z,6.20
2018-08-22T03:44:25.933Z,3.40
2018-08-22T03:46:01.670Z,6.60
2018-08-22T03:47:37.260Z,6.00
2018-08-22T03:49:14.914Z,6.20
2018-08-22T03:50:51.066Z,5.40
2018-08-22T03:52:30.696Z,5.00
2018-08-22T03:54:12.673Z,6.00
2018-08-22T03:55:55.655Z,6.00
2018-08-22T03:57:36.760Z,6.00
2018-08-22T03:59:18.042Z,7.40
2018-08-22T04:00:53.327Z,5.80
2018-08-22T04:02:28.605Z,6.60
2018-08-22T04:04:03.691Z,6.80
2018-08-22T04:05:38.663Z,6.40
2018-08-22T04:07:13.863Z,6.00
2018-08-22T04:08:49.124Z,6.40
2018-08-22T04:10:25.810Z,6.40
2018-08-22T04:12:01.884Z,7.00
2018-08-22T04:13:37.025Z,8.20
2018-08-22T04:15:14.760Z,9.00
2018-08-22T04:16:50.269Z,9.00
2018-08-22T04:18:25.252Z,5.20
2018-08-22T04:20:00.333Z,6.80
2018-08-22T04:21:35.574Z,4.20
2018-08-22T04:23:10.892Z,6.00
2018-08-22T04:24:47.121Z,7.00
2018-08-22T04:26:22.093Z,6.80
2018-08-22T04:27:57.781Z,6.20
2018-08-22T04:29:33.728Z,5.20
2018-08-22T04:31:09.137Z,4.60
2018-08-22T04:32:46.785Z,7.00
2018-08-22T04:34:23.282Z,7.00
2018-08-22T04:35:59.888Z,6.00
2018-08-22T04:37:35.505Z,6.00
2018-08-22T04:39:10.956Z,7.00
2018-08-22T04:40:46.613Z,8.60
2018-08-22T04:42:22.025Z,7.00
2018-08-22T04:43:58.467Z,7.00
2018-08-22T04:45:33.941Z,8.60
2018-08-22T04:47:09.552Z,7.00
2018-08-22T04:48:45.168Z,7.00
2018-08-22T04:50:20.370Z,7.00
2018-08-22T04:51:55.477Z,5.80
2018-08-22T04:53:33.462Z,7.80
2018-08-22T04:55:08.819Z,6.40
2018-08-22T04:56:44.211Z,8.20
2018-08-22T04:58:19.309Z,5.60
2018-08-22T04:59:54.702Z,7.80
2018-08-22T05:01:29.908Z,6.60
2018-08-22T05:03:05.314Z,6.60
2018-08-22T05:04:40.727Z,6.60
2018-08-22T05:06:15.980Z,5.40
2018-08-22T05:07:50.941Z,6.60
2018-08-22T05:09:26.079Z,7.80
2018-08-22T05:11:01.448Z,6.80
2018-08-22T05:12:36.541Z,7.00
2018-08-22T05:14:11.633Z,9.00
2018-08-22T05:15:47.048Z,7.00
2018-08-22T05:17:22.261Z,8.60
2018-08-22T05:18:58.128Z,9.20
2018-08-22T05:20:33.551Z,7.20
2018-08-22T05:22:08.765Z,8.00
2018-08-22T05:23:45.546Z,6.60
2018-08-22T05:25:20.515Z,9.80
2018-08-22T05:26:59.334Z,8.20
2018-08-22T05:28:36.622Z,7.00
2018-08-22T05:30:16.506Z,7.00
2018-08-22T05:31:52.093Z,7.40
2018-08-22T05:33:27.343Z,8.80
2018-08-22T05:35:03.389Z,10.00
2018-08-22T05:36:38.384Z,7.80
2018-08-22T05:38:13.627Z,7.80
2018-08-22T05:39:49.406Z,8.60
2018-08-22T05:41:25.929Z,8.40
2018-08-22T05:43:01.520Z,7.80
2018-08-22T05:44:36.748Z,7.80
2018-08-22T05:46:12.433Z,8.40
2018-08-22T05:47:47.907Z,8.60
2018-08-22T05:49:24.786Z,8.40
2018-08-22T05:50:59.970Z,8.80
2018-08-22T05:52:35.257Z,7.20
2018-08-22T05:54:10.379Z,7.80
2018-08-22T05:55:45.869Z,7.40
2018-08-22T05:57:20.981Z,7.00
2018-08-22T05:58:56.734Z,8.80
2018-08-22T06:00:32.937Z,8.00
2018-08-22T06:02:08.602Z,7.20
2018-08-22T06:03:45.681Z,7.20
2018-08-22T06:05:23.681Z,6.00
2018-08-22T06:06:58.908Z,4.80
2018-08-22T06:08:33.879Z,5.80
2018-08-22T06:10:10.265Z,8.00
2018-08-22T06:11:45.644Z,7.00
2018-08-22T06:13:27.707Z,8.00
2018-08-22T06:15:09.689Z,7.80
2018-08-22T06:16:49.882Z,7.40
2018-08-22T06:18:25.209Z,7.00
2018-08-22T06:20:02.735Z,7.20
2018-08-22T06:21:37.869Z,8.40
2018-08-22T06:23:13.195Z,7.40
2018-08-22T06:24:49.200Z,6.20
2018-08-22T06:26:24.401Z,4.40
2018-08-22T06:27:59.440Z,5.80
2018-08-22T06:29:35.444Z,7.00
2018-08-22T06:31:11.055Z,8.00
2018-08-22T06:32:47.882Z,6.20
2018-08-22T06:34:23.221Z,5.60
2018-08-22T06:35:59.519Z,6.20
2018-08-22T06:37:34.871Z,6.20
2018-08-22T06:39:11.581Z,6.80
2018-08-22T06:40:47.621Z,7.00
2018-08-22T06:42:24.364Z,7.60
2018-08-22T06:44:00.008Z,6.20
2018-08-22T06:45:36.597Z,6.00
2018-08-22T06:47:12.365Z,6.20
2018-08-22T06:48:47.756Z,6.00
2018-08-22T06:50:23.109Z,6.40
2018-08-22T06:51:58.326Z,6.80
2018-08-22T06:53:33.575Z,7.00
2018-08-22T06:55:08.894Z,6.20
2018-08-22T06:56:44.061Z,7.80
2018-08-22T06:58:19.353Z,5.60
2018-08-22T06:59:55.651Z,7.40
2018-08-22T07:01:30.780Z,6.00
2018-08-22T07:03:07.205Z,7.40
2018-08-22T07:04:42.590Z,7.00
2018-08-22T07:06:17.909Z,8.40
2018-08-22T07:07:53.431Z,7.00
2018-08-22T07:09:28.700Z,8.00
2018-08-22T07:11:04.020Z,6.00
2018-08-22T07:12:39.191Z,8.00
2018-08-22T07:15:23.455Z,6.80
2018-08-22T07:16:58.499Z,6.60
2018-08-22T07:18:35.134Z,8.60
2018-08-22T07:20:10.530Z,6.20
2018-08-22T07:21:45.810Z,8.00
2018-08-22T07:23:21.172Z,5.00
2018-08-22T07:24:56.718Z,7.80
2018-08-22T07:26:35.045Z,8.00
2018-08-22T07:28:12.146Z,7.00
2018-08-22T07:29:48.889Z,6.00
2018-08-22T07:31:24.581Z,7.20
2018-08-22T07:33:03.317Z,8.20
2018-08-22T07:34:39.148Z,6.80
2018-08-22T07:36:15.728Z,7.60
2018-08-22T07:37:51.657Z,7.00
2018-08-22T07:39:29.247Z,8.00
2018-08-22T07:41:06.728Z,7.00
2018-08-22T07:42:42.009Z,8.40
2018-08-22T07:44:17.162Z,9.40
2018-08-22T07:45:52.428Z,7.60
2018-08-22T07:47:28.640Z,7.40
2018-08-22T07:49:06.253Z,7.80
2018-08-22T07:50:43.914Z,7.80
2018-08-22T07:52:21.510Z,8.00
2018-08-22T07:53:59.984Z,8.00
2018-08-22T07:55:41.566Z,6.20
2018-08-22T07:57:24.861Z,8.80
2018-08-22T07:59:17.397Z,8.60
2018-08-22T08:00:54.617Z,9.00
2018-08-22T08:02:31.999Z,8.00
2018-08-22T08:04:08.146Z,8.40
2018-08-22T08:05:43.907Z,8.00
2018-08-22T08:07:20.957Z,7.80
2018-08-22T08:08:57.110Z,8.20
2018-08-22T08:10:32.842Z,7.40
2018-08-22T08:12:08.486Z,8.60
2018-08-22T08:13:43.580Z,7.20
2018-08-22T08:15:18.729Z,7.80
2018-08-22T08:16:54.041Z,6.20
2018-08-22T08:18:31.356Z,7.80
2018-08-22T08:20:08.268Z,7.00
2018-08-22T08:21:43.373Z,8.60
2018-08-22T08:23:20.552Z,7.80
2018-08-22T08:24:55.605Z,8.00
2018-08-22T08:26:31.615Z,6.80
2018-08-22T08:28:09.988Z,7.60
2018-08-22T08:29:45.969Z,8.20
2018-08-22T08:31:21.771Z,9.00
2018-08-22T08:32:57.986Z,8.20
2018-08-22T08:34:33.738Z,8.00
2018-08-22T08:36:15.818Z,8.00
2018-08-22T08:37:52.347Z,8.60
2018-08-22T08:39:27.722Z,8.20
2018-08-22T08:41:03.441Z,7.40
2018-08-22T08:42:41.660Z,7.00
2018-08-22T08:44:17.278Z,8.80
2018-08-22T08:45:54.423Z,7.80
2018-08-22T08:47:34.395Z,7.20
2018-08-22T08:49:10.448Z,6.80
2018-08-22T08:50:47.566Z,8.00
2018-08-22T08:52:23.357Z,7.40
2018-08-22T08:54:00.005Z,7.80
2018-08-22T08:55:35.983Z,7.60
2018-08-22T08:57:13.113Z,8.00
2018-08-22T08:58:49.243Z,7.00
2018-08-22T09:00:26.105Z,6.60
2018-08-22T09:02:01.229Z,7.80
2018-08-22T09:03:36.374Z,8.80
2018-08-22T09:05:13.240Z,7.80
2018-08-22T09:06:49.681Z,5.40
2018-08-22T09:08:26.162Z,10.00
2018-08-22T09:10:01.336Z,8.40
2018-08-22T09:11:37.590Z,6.80
2018-08-22T09:13:13.450Z,7.20
2018-08-22T09:14:49.528Z,9.00
2018-08-22T09:16:25.044Z,7.00
2018-08-22T09:18:01.082Z,5.80
2018-08-22T09:19:37.537Z,7.00
2018-08-22T09:21:13.064Z,8.00
2018-08-22T09:22:48.188Z,9.60
2018-08-22T09:24:24.897Z,7.80
2018-08-22T09:26:01.543Z,7.80
2018-08-22T09:27:37.698Z,7.80
2018-08-22T09:29:13.629Z,4.00
2018-08-22T09:30:49.385Z,5.80
2018-08-22T09:32:26.766Z,7.60
2018-08-22T09:34:02.191Z,8.80
2018-08-22T09:35:37.538Z,7.60
2018-08-22T09:37:12.879Z,7.80
2018-08-22T09:38:54.548Z,7.40
2018-08-22T09:40:30.388Z,5.60
2018-08-22T09:42:05.687Z,8.00
2018-08-22T09:43:42.537Z,8.40
2018-08-22T09:45:20.474Z,7.40
2018-08-22T09:46:58.559Z,9.40
2018-08-22T09:48:36.289Z,9.60
2018-08-22T09:50:12.440Z,8.20
2018-08-22T09:51:51.515Z,7.20
2018-08-22T09:53:27.321Z,8.00
2018-08-22T09:55:04.640Z,7.80
2018-08-22T09:56:41.419Z,6.40
2018-08-22T09:58:20.518Z,8.20
2018-08-22T10:00:04.198Z,7.20
2018-08-22T10:01:44.867Z,6.80
2018-08-22T10:03:20.159Z,8.40
2018-08-22T10:04:56.175Z,6.40
2018-08-22T10:06:45.401Z,8.00
2018-08-22T10:08:20.644Z,7.80
2018-08-22T10:09:56.390Z,6.20
2018-08-22T10:11:31.684Z,7.00
2018-08-22T10:13:08.990Z,7.20
2018-08-22T10:14:44.573Z,7.00
2018-08-22T10:16:20.168Z,7.40
2018-08-22T10:17:56.022Z,6.00
2018-08-22T10:19:32.868Z,6.60
2018-08-22T10:21:08.912Z,6.00
2018-08-22T10:22:44.333Z,7.20
2018-08-22T10:24:19.305Z,8.00
2018-08-22T10:26:01.605Z,7.60
2018-08-22T10:27:38.687Z,7.00
2018-08-22T10:29:15.465Z,7.00
2018-08-22T10:30:51.515Z,7.80
2018-08-22T10:32:27.038Z,7.80
2018-08-22T10:34:03.047Z,6.60
2018-08-22T10:35:39.278Z,6.00
2018-08-22T10:37:14.757Z,6.20
2018-08-22T10:38:51.391Z,7.00
2018-08-22T10:40:26.557Z,7.40
2018-08-22T10:42:03.690Z,8.60
2018-08-22T10:43:38.965Z,7.00
2018-08-22T10:45:16.824Z,8.40
2018-08-22T10:46:52.880Z,7.00
2018-08-22T10:48:30.553Z,7.00
2018-08-22T10:50:06.950Z,8.80
2018-08-22T10:51:44.033Z,8.00
2018-08-22T10:53:22.446Z,8.00
2018-08-22T10:54:57.904Z,7.20
2018-08-22T10:56:37.173Z,6.20
2018-08-22T10:58:15.790Z,7.00
2018-08-22T10:59:53.400Z,7.80
2018-08-22T11:01:28.851Z,7.80
2018-08-22T11:03:05.551Z,7.00
2018-08-22T11:04:41.133Z,7.80
2018-08-22T11:06:20.586Z,7.20
2018-08-22T11:07:58.020Z,7.60
2018-08-22T11:09:36.450Z,7.00
2018-08-22T11:11:13.011Z,6.00
2018-08-22T11:13:59.017Z,5.40
2018-08-22T11:15:38.713Z,7.60
2018-08-22T11:17:17.465Z,5.80
2018-08-22T11:18:59.279Z,8.00
2018-08-22T11:20:42.665Z,6.20
2018-08-22T11:22:28.503Z,6.20
2018-08-22T11:24:14.705Z,7.20
2018-08-22T11:26:00.932Z,6.60
2018-08-22T11:27:47.169Z,6.40
2018-08-22T11:29:33.768Z,7.40
2018-08-22T11:31:21.388Z,4.00
2018-08-22T11:33:07.016Z,6.60
2018-08-22T11:34:46.997Z,5.00
2018-08-22T11:36:20.636Z,5.40
2018-08-22T11:37:57.571Z,5.00
2018-08-22T11:39:34.432Z,6.00
2018-08-22T11:41:11.791Z,5.80
2018-08-22T11:42:47.862Z,5.00
2018-08-22T11:44:24.203Z,7.20
2018-08-22T11:46:00.590Z,6.40
2018-08-22T11:47:38.124Z,6.80
2018-08-22T11:49:15.122Z,7.00
2018-08-22T11:50:51.177Z,7.60
2018-08-22T11:52:29.418Z,7.00
2018-08-22T11:54:08.714Z,7.20
2018-08-22T11:55:46.442Z,6.20
2018-08-22T11:57:23.127Z,6.20
2018-08-22T11:59:00.141Z,6.00
2018-08-22T12:00:40.960Z,7.20
2018-08-22T12:02:21.901Z,7.00
2018-08-22T12:03:59.673Z,7.40
2018-08-22T12:05:42.863Z,5.40
2018-08-22T12:07:23.408Z,4.60
2018-08-22T12:09:01.368Z,5.60
2018-08-22T12:10:43.599Z,4.20
2018-08-22T12:12:20.856Z,5.20
2018-08-22T12:14:02.611Z,5.40
2018-08-22T12:15:45.825Z,5.20
2018-08-22T12:17:31.781Z,5.60
2018-08-22T12:19:14.556Z,7.00
2018-08-22T12:20:52.780Z,6.60
2018-08-22T12:22:31.036Z,5.40
2018-08-22T12:24:11.331Z,5.20
2018-08-22T12:25:47.973Z,6.00
2018-08-22T12:27:25.210Z,6.00
2018-08-22T12:29:05.534Z,5.40
2018-08-22T12:30:44.521Z,5.20
2018-08-22T12:32:23.414Z,3.80
2018-08-22T12:34:03.550Z,5.20
2018-08-22T12:35:39.989Z,5.20
2018-08-22T12:37:22.867Z,5.80
2018-08-22T12:39:01.757Z,6.00
2018-08-22T12:40:37.941Z,6.00
2018-08-22T12:42:15.390Z,5.60
2018-08-22T12:43:55.479Z,5.60
2018-08-22T12:45:34.247Z,4.20
2018-08-22T12:47:14.781Z,7.00
2018-08-22T12:48:50.373Z,7.20
2018-08-22T12:50:28.928Z,5.20
2018-08-22T12:52:07.738Z,5.40
2018-08-22T12:53:45.651Z,5.40
2018-08-22T12:55:22.500Z,5.60
2018-08-22T12:56:58.349Z,6.00
2018-08-22T12:58:33.523Z,5.00
2018-08-22T13:00:08.870Z,6.00
2018-08-22T13:01:45.255Z,6.20
2018-08-22T13:03:23.287Z,6.20
2018-08-22T13:05:04.599Z,5.80
2018-08-22T13:06:44.290Z,6.20
2018-08-22T13:08:20.916Z,6.60
2018-08-22T13:10:00.295Z,5.00
2018-08-22T13:11:37.000Z,5.20
2018-08-22T13:13:15.914Z,6.00
2018-08-22T13:14:52.750Z,7.00
2018-08-22T13:16:42.885Z,7.00
2018-08-22T13:18:19.425Z,5.80
2018-08-22T13:19:55.870Z,7.00
2018-08-22T13:21:32.110Z,5.20
2018-08-22T13:23:15.652Z,6.40
2018-08-22T13:24:52.599Z,5.40
2018-08-22T13:26:31.604Z,5.40
2018-08-22T13:28:09.278Z,4.20
2018-08-22T13:29:52.210Z,5.60
2018-08-22T13:31:29.917Z,6.00
2018-08-22T13:33:05.683Z,6.20
2018-08-22T13:34:42.167Z,4.00
2018-08-22T13:36:20.415Z,7.00
2018-08-22T13:37:57.936Z,6.60
2018-08-22T13:39:35.568Z,7.00
2018-08-22T13:41:11.691Z,7.80
2018-08-22T13:42:48.418Z,7.00
2018-08-22T13:44:25.476Z,6.00
2018-08-22T13:46:03.763Z,5.20
2018-08-22T13:47:40.895Z,6.00
2018-08-22T13:49:17.245Z,6.00
2018-08-22T13:50:53.024Z,7.40
2018-08-22T13:52:29.833Z,7.00
2018-08-22T13:54:07.293Z,4.20
2018-08-22T13:55:43.408Z,6.00
2018-08-22T13:57:21.822Z,6.80
2018-08-22T13:59:00.833Z,7.00
2018-08-22T14:00:37.297Z,7.00
2018-08-22T14:02:13.849Z,7.60
2018-08-22T14:03:55.491Z,5.80
2018-08-22T14:05:33.554Z,7.00
2018-08-22T14:07:10.779Z,7.00
2018-08-22T14:08:47.516Z,7.60
2018-08-22T14:10:26.646Z,9.20
2018-08-22T14:12:05.194Z,9.60
2018-08-22T14:13:42.833Z,8.00
2018-08-22T14:15:21.565Z,8.00
2018-08-22T14:16:59.700Z,8.00
2018-08-22T14:18:35.864Z,7.00
2018-08-22T14:20:13.163Z,5.80
2018-08-22T14:21:53.289Z,8.40
2018-08-22T14:23:31.979Z,9.00
2018-08-22T14:25:14.162Z,8.00
2018-08-22T14:26:53.112Z,8.00
2018-08-22T14:29:40.335Z,7.80
2018-08-22T14:31:19.771Z,8.60
2018-08-22T14:32:56.661Z,9.00
2018-08-22T14:34:32.776Z,9.00
2018-08-22T14:36:10.471Z,10.00
2018-08-22T14:37:46.216Z,10.00
2018-08-22T14:39:22.004Z,10.80
2018-08-22T14:40:57.386Z,10.80
2018-08-22T14:42:35.929Z,11.60
2018-08-22T14:44:12.517Z,9.60
2018-08-22T14:45:47.939Z,9.00
2018-08-22T14:47:28.396Z,9.40
2018-08-22T14:49:06.592Z,10.20
2018-08-22T14:50:43.101Z,10.40
2018-08-22T14:52:18.447Z,9.00
2018-08-22T14:53:55.475Z,5.00
2018-08-22T14:55:33.110Z,9.80
2018-08-22T14:57:10.965Z,10.00
2018-08-22T14:58:49.489Z,10.80
2018-08-22T15:00:27.476Z,10.00
2018-08-22T15:02:04.412Z,10.40
2018-08-22T15:03:42.615Z,11.00
2018-08-22T15:05:23.207Z,10.60
2018-08-22T15:06:59.666Z,10.60
2018-08-22T15:08:35.603Z,11.20
2018-08-22T15:10:15.905Z,10.20
2018-08-22T15:11:54.705Z,10.80
2018-08-22T15:13:32.774Z,8.80
2018-08-22T15:15:09.634Z,10.00
2018-08-22T15:16:46.805Z,9.80
2018-08-22T15:18:23.475Z,11.80
2018-08-22T15:19:58.749Z,7.80
2018-08-22T15:21:38.443Z,11.00
2018-08-22T15:23:15.404Z,9.80
2018-08-22T15:24:55.142Z,10.80
2018-08-22T15:28:23.694Z,12.60
2018-08-22T15:30:16.781Z,10.40
2018-08-22T15:32:04.656Z,12.60
2018-08-22T15:33:40.539Z,11.80
2018-08-22T15:35:16.143Z,11.80
2018-08-22T15:36:56.372Z,12.40
2018-08-22T15:38:35.260Z,13.00
2018-08-22T15:40:11.926Z,11.80
2018-08-22T15:41:48.896Z,12.80
2018-08-22T15:43:25.437Z,12.80
2018-08-22T15:45:00.488Z,15.00
2018-08-22T15:46:36.080Z,13.00
2018-08-22T15:48:16.527Z,13.80
2018-08-22T15:49:57.483Z,13.80
2018-08-22T15:51:38.954Z,15.00
2018-08-22T15:53:14.379Z,13.80
2018-08-22T15:55:05.342Z,11.00
2018-08-22T15:56:42.976Z,15.40
2018-08-22T15:58:18.865Z,15.00
2018-08-22T15:59:58.695Z,14.80
2018-08-22T16:01:36.581Z,13.60
2018-08-22T16:03:15.231Z,16.00
2018-08-22T16:04:59.155Z,16.00
2018-08-22T16:06:37.262Z,15.60
2018-08-22T16:08:21.598Z,15.40
2018-08-22T16:09:57.135Z,14.00
2018-08-22T16:11:42.380Z,14.60
2018-08-22T16:13:22.658Z,15.40
2018-08-22T16:15:00.174Z,15.80
2018-08-22T16:16:35.946Z,14.00
2018-08-22T16:18:11.603Z,15.20
2018-08-22T16:19:46.748Z,17.00
2018-08-22T16:21:22.716Z,15.20
2018-08-22T16:22:58.504Z,16.40
2018-08-22T16:24:36.861Z,18.60
2018-08-22T16:26:12.142Z,17.80
2018-08-22T16:27:52.547Z,17.20
2018-08-22T16:29:30.248Z,16.80
2018-08-22T16:31:07.588Z,16.20
2018-08-22T16:32:47.317Z,14.00
2018-08-22T16:34:24.529Z,15.60
2018-08-22T16:36:00.739Z,15.60
2018-08-22T16:37:39.459Z,15.20
2018-08-22T16:39:20.521Z,19.00
2018-08-22T16:42:44.000Z,19.20
2018-08-22T16:44:20.103Z,16.20
2018-08-22T16:45:56.552Z,17.40
2018-08-22T16:47:37.472Z,18.60
2018-08-22T16:49:17.777Z,17.80
2018-08-22T16:50:55.257Z,12.40
2018-08-22T16:52:38.817Z,16.80
2018-08-22T16:54:16.323Z,16.20
2018-08-22T16:56:00.723Z,15.60
2018-08-22T16:57:36.100Z,17.00
2018-08-22T17:00:56.948Z,17.60
2018-08-22T17:02:34.204Z,17.00
2018-08-22T17:04:11.922Z,17.40
2018-08-22T17:05:48.896Z,16.00
2018-08-22T17:07:26.235Z,16.60
2018-08-22T17:09:04.416Z,19.00
2018-08-22T17:10:52.030Z,19.00
2018-08-22T17:12:40.277Z,19.20
2018-08-22T17:14:16.202Z,15.60
2018-08-22T17:15:52.996Z,18.80
2018-08-22T17:18:43.952Z,17.80
2018-08-22T17:20:19.645Z,17.80
2018-08-22T17:22:00.637Z,17.80
2018-08-22T17:23:38.008Z,13.20
2018-08-22T17:25:20.056Z,16.20
2018-08-22T17:27:00.348Z,14.80
2018-08-22T17:28:39.317Z,14.60
2018-08-22T17:30:20.526Z,17.00
2018-08-22T17:32:06.490Z,17.40
2018-08-22T17:33:47.813Z,19.20
2018-08-22T17:35:27.320Z,17.80
2018-08-22T17:37:08.551Z,18.00
2018-08-22T17:38:47.618Z,16.40
2018-08-22T17:40:23.798Z,19.00
2018-08-22T17:42:01.580Z,19.40
2018-08-22T17:43:51.744Z,18.20
2018-08-22T17:45:34.821Z,17.40
2018-08-22T17:47:14.624Z,18.20
2018-08-22T17:48:54.759Z,19.80
2018-08-22T17:50:32.351Z,19.80
2018-08-22T17:52:12.143Z,20.00
2018-08-22T17:53:47.231Z,18.40
2018-08-22T17:55:22.830Z,16.40
2018-08-22T17:57:13.362Z,17.00
2018-08-22T17:58:53.380Z,17.80
2018-08-22T18:00:38.645Z,18.60
2018-08-22T18:02:15.125Z,16.00
2018-08-22T18:03:53.300Z,17.80
2018-08-22T18:05:38.449Z,16.20
2018-08-22T18:07:20.096Z,17.00
2018-08-22T18:08:57.275Z,19.60
2018-08-22T18:10:36.286Z,18.00
2018-08-22T18:12:19.124Z,19.40
2018-08-22T18:13:58.586Z,18.20
2018-08-22T18:15:42.696Z,19.00
2018-08-22T18:19:09.803Z,20.00
2018-08-22T18:20:50.079Z,18.60
2018-08-22T18:22:31.880Z,14.40
2018-08-22T18:24:14.045Z,20.00
2018-08-22T18:25:54.636Z,18.60
2018-08-22T18:27:33.224Z,14.80
2018-08-22T18:29:11.372Z,18.00
2018-08-22T18:30:52.105Z,18.20
2018-08-22T18:32:43.385Z,18.80
2018-08-22T18:36:42.318Z,17.80
2018-08-22T18:38:19.889Z,17.60
2018-08-22T18:40:27.724Z,18.60
2018-08-22T18:42:05.705Z,17.40
2018-08-22T18:43:44.236Z,18.40
2018-08-22T18:45:28.989Z,18.80
2018-08-22T18:47:06.376Z,17.80
2018-08-22T18:48:44.740Z,17.20
2018-08-22T18:50:23.485Z,17.00
2018-08-22T18:52:15.020Z,18.00
2018-08-22T18:54:04.713Z,20.40
2018-08-22T18:55:43.713Z,16.60
2018-08-22T18:57:34.728Z,17.20
2018-08-22T18:59:29.569Z,19.40
2018-08-22T19:01:13.491Z,19.60
2018-08-22T19:03:00.767Z,21.40
2018-08-22T19:04:49.185Z,21.00
2018-08-22T19:08:24.842Z,19.40
2018-08-22T19:10:05.640Z,20.20
2018-08-22T19:11:44.444Z,20.80
2018-08-22T19:13:22.125Z,21.20
2018-08-22T19:15:09.226Z,24.20
2018-08-22T19:16:48.614Z,21.80
2018-08-22T19:18:31.018Z,22.20
2018-08-22T19:20:14.329Z,21.20
2018-08-22T19:21:56.593Z,21.20
2018-08-22T19:23:35.909Z,23.00
2018-08-22T19:27:12.371Z,21.40
2018-08-22T19:29:00.776Z,19.20
2018-08-22T19:30:42.754Z,20.20
2018-08-22T19:32:36.770Z,20.60
2018-08-22T19:34:18.218Z,13.80
2018-08-22T19:35:56.760Z,16.80
2018-08-22T19:37:36.989Z,19.20
2018-08-22T19:39:16.262Z,23.00
2018-08-22T19:40:52.579Z,22.60
2018-08-22T19:42:30.928Z,22.80
2018-08-22T19:44:14.197Z,21.00
2018-08-22T19:45:51.262Z,22.80
2018-08-22T19:47:48.947Z,23.00
2018-08-22T19:49:43.769Z,22.80
2018-08-22T19:53:18.227Z,22.00
2018-08-22T19:55:01.215Z,20.60
2018-08-22T19:56:39.272Z,22.00
2018-08-22T19:58:25.166Z,20.40
2018-08-22T20:00:10.622Z,17.60
2018-08-22T20:01:55.493Z,20.80
2018-08-22T20:03:36.779Z,19.20
2018-08-22T20:05:20.461Z,19.60
2018-08-22T20:07:01.954Z,19.80
2018-08-22T20:08:45.866Z,19.20
2018-08-22T20:12:11.504Z,22.40
2018-08-22T20:14:00.446Z,24.00
2018-08-22T20:15:52.505Z,24.40
2018-08-22T20:17:35.668Z,21.40
2018-08-22T20:21:15.278Z,21.20
2018-08-22T20:23:01.678Z,24.00
2018-08-22T20:24:45.017Z,23.40
2018-08-22T20:26:32.778Z,24.00
2018-08-22T20:28:16.688Z,24.00
2018-08-22T20:30:18.070Z,26.60
2018-08-22T20:32:00.762Z,24.20
2018-08-22T20:33:44.744Z,25.00
2018-08-22T20:35:28.281Z,24.20
2018-08-22T20:37:07.463Z,24.80
2018-08-22T20:38:51.461Z,24.20
2018-08-22T20:40:34.082Z,24.00
2018-08-22T20:42:18.819Z,25.40
2018-08-22T20:43:57.306Z,26.80
2018-08-22T20:45:38.098Z,23.00
2018-08-22T20:47:18.887Z,26.00
2018-08-22T20:48:59.381Z,21.40
2018-08-22T20:50:43.747Z,24.40
2018-08-22T20:52:23.193Z,26.20
2018-08-22T20:54:08.473Z,25.80
2018-08-22T20:55:46.079Z,29.60
2018-08-22T20:57:28.983Z,29.40
2018-08-22T20:59:10.140Z,30.00
2018-08-22T21:00:53.768Z,25.40
2018-08-22T21:02:34.693Z,27.60
2018-08-22T21:04:13.555Z,28.00
2018-08-22T21:05:57.744Z,29.80
2018-08-22T21:07:38.515Z,26.60
2018-08-22T21:09:16.456Z,26.20
2018-08-22T21:10:52.160Z,27.20
2018-08-22T21:12:29.160Z,29.00
2018-08-22T21:14:14.327Z,27.00
2018-08-22T21:15:53.398Z,27.60
2018-08-22T21:17:46.644Z,26.80
2018-08-22T21:19:25.252Z,28.00
2018-08-22T21:21:08.121Z,29.00
2018-08-22T21:22:46.021Z,24.00
2018-08-22T21:24:26.475Z,29.20
2018-08-22T21:26:08.194Z,23.80
2018-08-22T21:27:43.329Z,26.40
2018-08-22T21:29:19.761Z,26.80
2018-08-22T21:31:01.761Z,26.60
2018-08-22T21:32:37.940Z,28.00
2018-08-22T21:34:25.638Z,30.40
2018-08-22T21:36:05.444Z,28.60
2018-08-22T21:37:51.237Z,28.00
2018-08-22T21:39:28.761Z,29.00
2018-08-22T21:41:07.583Z,29.80
2018-08-22T21:42:49.603Z,28.00
2018-08-22T21:44:29.135Z,27.60
2018-08-22T21:46:16.237Z,26.00
2018-08-22T21:48:04.584Z,30.20
2018-08-22T21:49:49.762Z,32.00
2018-08-22T21:51:27.012Z,31.00
2018-08-22T21:53:08.920Z,31.00
2018-08-22T21:54:44.862Z,34.20
2018-08-22T21:56:26.637Z,31.00